sensor_id;sensor_type;location;lat;lon;timestamp;P1;durP1;ratioP1;P2;durP2;ratioP2
49378;SDS011;35254;47.990;-1.608;2023-04-25T00:00:25;3.95;;;2.00;;
49378;SDS011;35254;47.990;-1.608;2023-04-25T00:02:50;7.22;;;1.55;;
49378;SDS011;35254;47.990;-1.608;2023-04-25T00:05:16;11.68;;;2.20;;
49378;SDS011;35254;47.990;-1.608;2023-04-25T00:07:42;11.05;;;1.67;;
49378;SDS011;35254;47.990;-1.608;2023-04-25T00:10:08;11.48;;;2.58;;
49378;SDS011;35254;47.990;-1.608;2023-04-25T00:12:36;3.58;;;2.08;;
49378;SDS011;35254;47.990;-1.608;2023-04-25T00:15:01;8.80;;;1.65;;
49378;SDS011;35254;47.990;-1.608;2023-04-25T00:17:28;4.22;;;1.77;;
49378;SDS011;35254;47.990;-1.608;2023-04-25T00:19:53;7.78;;;2.30;;
49378;SDS011;35254;47.990;-1.608;2023-04-25T00:22:19;5.35;;;1.60;;
49378;SDS011;35254;47.990;-1.608;2023-04-25T00:24:45;19.20;;;1.67;;
49378;SDS011;35254;47.990;-1.608;2023-04-25T00:27:11;6.18;;;1.88;;
49378;SDS011;35254;47.990;-1.608;2023-04-25T00:29:36;9.20;;;2.28;;
49378;SDS011;35254;47.990;-1.608;2023-04-25T00:32:02;7.13;;;1.85;;
49378;SDS011;35254;47.990;-1.608;2023-04-25T00:34:28;5.50;;;1.50;;
49378;SDS011;35254;47.990;-1.608;2023-04-25T00:36:53;4.90;;;1.52;;
49378;SDS011;35254;47.990;-1.608;2023-04-25T00:39:19;9.23;;;2.05;;
49378;SDS011;35254;47.990;-1.608;2023-04-25T00:41:45;15.32;;;2.50;;
49378;SDS011;35254;47.990;-1.608;2023-04-25T00:44:11;9.02;;;2.60;;
49378;SDS011;35254;47.990;-1.608;2023-04-25T00:46:38;7.18;;;2.47;;
49378;SDS011;35254;47.990;-1.608;2023-04-25T00:49:04;13.20;;;2.05;;
49378;SDS011;35254;47.990;-1.608;2023-04-25T00:51:30;7.47;;;2.08;;
49378;SDS011;35254;47.990;-1.608;2023-04-25T00:53:57;7.25;;;1.70;;
49378;SDS011;35254;47.990;-1.608;2023-04-25T00:56:23;9.82;;;2.47;;
49378;SDS011;35254;47.990;-1.608;2023-04-25T00:58:50;8.43;;;1.75;;
49378;SDS011;35254;47.990;-1.608;2023-04-25T01:01:20;4.70;;;2.20;;
49378;SDS011;35254;47.990;-1.608;2023-04-25T01:03:46;10.95;;;1.90;;
49378;SDS011;35254;47.990;-1.608;2023-04-25T01:06:12;6.30;;;1.73;;
49378;SDS011;35254;47.990;-1.608;2023-04-25T01:08:38;11.13;;;1.70;;
49378;SDS011;35254;47.990;-1.608;2023-04-25T01:11:04;10.50;;;1.77;;
49378;SDS011;35254;47.990;-1.608;2023-04-25T01:13:31;7.53;;;1.88;;
49378;SDS011;35254;47.990;-1.608;2023-04-25T01:15:58;6.25;;;1.33;;
49378;SDS011;35254;47.990;-1.608;2023-04-25T01:18:24;2.97;;;1.48;;
49378;SDS011;35254;47.990;-1.608;2023-04-25T01:20:50;6.20;;;1.45;;
49378;SDS011;35254;47.990;-1.608;2023-04-25T01:23:18;8.73;;;1.50;;
49378;SDS011;35254;47.990;-1.608;2023-04-25T01:25:45;6.72;;;1.73;;
49378;SDS011;35254;47.990;-1.608;2023-04-25T01:28:11;8.02;;;1.60;;
49378;SDS011;35254;47.990;-1.608;2023-04-25T01:30:37;9.18;;;1.58;;
49378;SDS011;35254;47.990;-1.608;2023-04-25T01:33:04;10.18;;;1.58;;
49378;SDS011;35254;47.990;-1.608;2023-04-25T01:35:31;7.07;;;1.30;;
49378;SDS011;35254;47.990;-1.608;2023-04-25T01:37:57;7.30;;;1.80;;
49378;SDS011;35254;47.990;-1.608;2023-04-25T01:40:23;10.30;;;1.70;;
49378;SDS011;35254;47.990;-1.608;2023-04-25T01:42:50;6.25;;;1.50;;
49378;SDS011;35254;47.990;-1.608;2023-04-25T01:45:16;5.72;;;1.60;;
49378;SDS011;35254;47.990;-1.608;2023-04-25T01:47:42;8.75;;;1.63;;
49378;SDS011;35254;47.990;-1.608;2023-04-25T01:50:08;3.60;;;1.42;;
49378;SDS011;35254;47.990;-1.608;2023-04-25T01:52:36;7.68;;;1.50;;
49378;SDS011;35254;47.990;-1.608;2023-04-25T01:55:02;6.75;;;1.42;;
49378;SDS011;35254;47.990;-1.608;2023-04-25T01:57:28;4.47;;;1.30;;
49378;SDS011;35254;47.990;-1.608;2023-04-25T02:00:00;3.95;;;1.63;;
49378;SDS011;35254;47.990;-1.608;2023-04-25T02:02:28;3.95;;;1.20;;
49378;SDS011;35254;47.990;-1.608;2023-04-25T02:04:53;3.47;;;1.15;;
49378;SDS011;35254;47.990;-1.608;2023-04-25T02:07:19;8.90;;;1.75;;
49378;SDS011;35254;47.990;-1.608;2023-04-25T02:09:45;7.07;;;1.42;;
49378;SDS011;35254;47.990;-1.608;2023-04-25T02:12:11;4.80;;;1.23;;
49378;SDS011;35254;47.990;-1.608;2023-04-25T02:14:37;4.82;;;1.42;;
49378;SDS011;35254;47.990;-1.608;2023-04-25T02:17:02;3.85;;;1.40;;
49378;SDS011;35254;47.990;-1.608;2023-04-25T02:19:28;3.03;;;1.10;;
49378;SDS011;35254;47.990;-1.608;2023-04-25T02:21:54;2.30;;;1.50;;
49378;SDS011;35254;47.990;-1.608;2023-04-25T02:24:22;5.55;;;0.90;;
49378;SDS011;35254;47.990;-1.608;2023-04-25T02:26:48;6.07;;;1.00;;
49378;SDS011;35254;47.990;-1.608;2023-04-25T02:29:14;8.00;;;2.95;;
49378;SDS011;35254;47.990;-1.608;2023-04-25T02:31:40;7.20;;;1.83;;
49378;SDS011;35254;47.990;-1.608;2023-04-25T02:34:06;8.65;;;1.65;;
49378;SDS011;35254;47.990;-1.608;2023-04-25T02:36:31;5.75;;;1.45;;
49378;SDS011;35254;47.990;-1.608;2023-04-25T02:38:59;5.47;;;1.63;;
49378;SDS011;35254;47.990;-1.608;2023-04-25T02:41:25;8.07;;;1.40;;
49378;SDS011;35254;47.990;-1.608;2023-04-25T02:43:51;7.95;;;1.58;;
49378;SDS011;35254;47.990;-1.608;2023-04-25T02:46:17;2.67;;;1.20;;
49378;SDS011;35254;47.990;-1.608;2023-04-25T02:48:42;8.80;;;1.52;;
49378;SDS011;35254;47.990;-1.608;2023-04-25T02:51:08;11.43;;;1.20;;
49378;SDS011;35254;47.990;-1.608;2023-04-25T02:53:34;8.48;;;1.80;;
49378;SDS011;35254;47.990;-1.608;2023-04-25T02:56:00;4.85;;;1.35;;
49378;SDS011;35254;47.990;-1.608;2023-04-25T02:58:26;5.07;;;1.42;;
49378;SDS011;35254;47.990;-1.608;2023-04-25T03:00:51;7.72;;;1.30;;
49378;SDS011;35254;47.990;-1.608;2023-04-25T03:03:17;4.55;;;1.30;;
49378;SDS011;35254;47.990;-1.608;2023-04-25T03:05:43;5.88;;;1.20;;
49378;SDS011;35254;47.990;-1.608;2023-04-25T03:08:09;8.60;;;1.38;;
49378;SDS011;35254;47.990;-1.608;2023-04-25T03:10:35;6.38;;;1.40;;
49378;SDS011;35254;47.990;-1.608;2023-04-25T03:13:00;2.10;;;0.82;;
49378;SDS011;35254;47.990;-1.608;2023-04-25T03:15:26;9.02;;;1.13;;
49378;SDS011;35254;47.990;-1.608;2023-04-25T03:17:51;15.23;;;1.95;;
49378;SDS011;35254;47.990;-1.608;2023-04-25T03:20:17;2.28;;;1.10;;
49378;SDS011;35254;47.990;-1.608;2023-04-25T03:22:43;12.07;;;1.70;;
49378;SDS011;35254;47.990;-1.608;2023-04-25T03:25:09;9.27;;;1.95;;
49378;SDS011;35254;47.990;-1.608;2023-04-25T03:27:35;2.80;;;1.33;;
49378;SDS011;35254;47.990;-1.608;2023-04-25T03:30:00;9.32;;;2.60;;
49378;SDS011;35254;47.990;-1.608;2023-04-25T03:32:26;9.98;;;1.67;;
49378;SDS011;35254;47.990;-1.608;2023-04-25T03:34:52;3.05;;;1.20;;
49378;SDS011;35254;47.990;-1.608;2023-04-25T03:37:17;6.93;;;1.45;;
49378;SDS011;35254;47.990;-1.608;2023-04-25T03:39:43;6.97;;;1.52;;
49378;SDS011;35254;47.990;-1.608;2023-04-25T03:42:08;7.32;;;0.98;;
49378;SDS011;35254;47.990;-1.608;2023-04-25T03:44:34;5.43;;;1.73;;
49378;SDS011;35254;47.990;-1.608;2023-04-25T03:47:00;6.18;;;1.23;;
49378;SDS011;35254;47.990;-1.608;2023-04-25T03:49:25;4.90;;;1.08;;
49378;SDS011;35254;47.990;-1.608;2023-04-25T03:51:51;4.97;;;1.13;;
49378;SDS011;35254;47.990;-1.608;2023-04-25T03:54:16;2.63;;;1.35;;
49378;SDS011;35254;47.990;-1.608;2023-04-25T03:56:42;3.22;;;1.60;;
49378;SDS011;35254;47.990;-1.608;2023-04-25T03:59:08;3.85;;;1.20;;
49378;SDS011;35254;47.990;-1.608;2023-04-25T04:01:33;6.15;;;1.77;;
49378;SDS011;35254;47.990;-1.608;2023-04-25T04:03:59;7.63;;;1.30;;
49378;SDS011;35254;47.990;-1.608;2023-04-25T04:06:25;5.57;;;1.20;;
49378;SDS011;35254;47.990;-1.608;2023-04-25T04:08:50;8.35;;;1.80;;
49378;SDS011;35254;47.990;-1.608;2023-04-25T04:11:16;9.48;;;1.58;;
49378;SDS011;35254;47.990;-1.608;2023-04-25T04:13:41;4.40;;;1.58;;
49378;SDS011;35254;47.990;-1.608;2023-04-25T04:16:07;8.38;;;3.30;;
49378;SDS011;35254;47.990;-1.608;2023-04-25T04:18:33;2.30;;;1.08;;
49378;SDS011;35254;47.990;-1.608;2023-04-25T04:20:59;2.13;;;1.05;;
49378;SDS011;35254;47.990;-1.608;2023-04-25T04:23:24;4.47;;;1.23;;
49378;SDS011;35254;47.990;-1.608;2023-04-25T04:25:52;6.00;;;1.02;;
49378;SDS011;35254;47.990;-1.608;2023-04-25T04:28:18;7.65;;;1.33;;
49378;SDS011;35254;47.990;-1.608;2023-04-25T04:30:45;4.22;;;1.90;;
49378;SDS011;35254;47.990;-1.608;2023-04-25T04:33:11;6.40;;;1.02;;
49378;SDS011;35254;47.990;-1.608;2023-04-25T04:35:37;6.75;;;1.10;;
49378;SDS011;35254;47.990;-1.608;2023-04-25T04:38:02;10.85;;;1.20;;
49378;SDS011;35254;47.990;-1.608;2023-04-25T04:40:28;4.78;;;1.50;;
49378;SDS011;35254;47.990;-1.608;2023-04-25T04:42:56;10.88;;;1.00;;
49378;SDS011;35254;47.990;-1.608;2023-04-25T04:45:22;3.72;;;1.10;;
49378;SDS011;35254;47.990;-1.608;2023-04-25T04:47:48;4.25;;;1.17;;
49378;SDS011;35254;47.990;-1.608;2023-04-25T04:50:15;6.72;;;1.40;;
49378;SDS011;35254;47.990;-1.608;2023-04-25T04:52:41;5.88;;;1.30;;
49378;SDS011;35254;47.990;-1.608;2023-04-25T04:55:07;7.03;;;1.08;;
49378;SDS011;35254;47.990;-1.608;2023-04-25T04:57:33;5.97;;;1.38;;
49378;SDS011;35254;47.990;-1.608;2023-04-25T05:00:00;4.57;;;1.17;;
49378;SDS011;35254;47.990;-1.608;2023-04-25T05:02:26;7.07;;;1.30;;
49378;SDS011;35254;47.990;-1.608;2023-04-25T05:04:52;2.42;;;1.30;;
49378;SDS011;35254;47.990;-1.608;2023-04-25T05:07:18;9.60;;;1.42;;
49378;SDS011;35254;47.990;-1.608;2023-04-25T05:09:44;3.47;;;1.17;;
49378;SDS011;35254;47.990;-1.608;2023-04-25T05:12:09;2.58;;;0.85;;
49378;SDS011;35254;47.990;-1.608;2023-04-25T05:14:35;5.78;;;1.45;;
49378;SDS011;35254;47.990;-1.608;2023-04-25T05:17:01;6.80;;;1.30;;
49378;SDS011;35254;47.990;-1.608;2023-04-25T05:19:29;4.53;;;1.40;;
49378;SDS011;35254;47.990;-1.608;2023-04-25T05:21:55;13.95;;;1.30;;
49378;SDS011;35254;47.990;-1.608;2023-04-25T05:24:21;5.50;;;2.70;;
49378;SDS011;35254;47.990;-1.608;2023-04-25T05:26:46;2.67;;;1.00;;
49378;SDS011;35254;47.990;-1.608;2023-04-25T05:29:12;11.60;;;1.45;;
49378;SDS011;35254;47.990;-1.608;2023-04-25T05:31:37;3.10;;;1.17;;
49378;SDS011;35254;47.990;-1.608;2023-04-25T05:34:03;3.03;;;1.55;;
49378;SDS011;35254;47.990;-1.608;2023-04-25T05:36:29;5.32;;;1.52;;
49378;SDS011;35254;47.990;-1.608;2023-04-25T05:38:55;5.32;;;1.38;;
49378;SDS011;35254;47.990;-1.608;2023-04-25T05:41:21;4.10;;;1.17;;
49378;SDS011;35254;47.990;-1.608;2023-04-25T05:43:47;7.22;;;1.38;;
49378;SDS011;35254;47.990;-1.608;2023-04-25T05:46:14;5.78;;;1.45;;
49378;SDS011;35254;47.990;-1.608;2023-04-25T05:48:42;6.10;;;1.30;;
49378;SDS011;35254;47.990;-1.608;2023-04-25T05:51:08;7.57;;;1.77;;
49378;SDS011;35254;47.990;-1.608;2023-04-25T05:53:34;7.85;;;1.55;;
49378;SDS011;35254;47.990;-1.608;2023-04-25T05:56:00;5.05;;;1.10;;
49378;SDS011;35254;47.990;-1.608;2023-04-25T05:58:26;4.97;;;1.30;;
49378;SDS011;35254;47.990;-1.608;2023-04-25T06:00:51;7.50;;;1.08;;
49378;SDS011;35254;47.990;-1.608;2023-04-25T06:03:17;2.55;;;1.00;;
49378;SDS011;35254;47.990;-1.608;2023-04-25T06:05:42;5.75;;;1.50;;
49378;SDS011;35254;47.990;-1.608;2023-04-25T06:08:09;4.45;;;1.17;;
49378;SDS011;35254;47.990;-1.608;2023-04-25T06:10:35;2.88;;;1.40;;
49378;SDS011;35254;47.990;-1.608;2023-04-25T06:13:01;2.72;;;0.98;;
49378;SDS011;35254;47.990;-1.608;2023-04-25T06:15:27;1.70;;;1.45;;
49378;SDS011;35254;47.990;-1.608;2023-04-25T06:17:52;4.07;;;1.40;;
49378;SDS011;35254;47.990;-1.608;2023-04-25T06:20:18;3.42;;;1.25;;
49378;SDS011;35254;47.990;-1.608;2023-04-25T06:22:48;5.93;;;1.40;;
49378;SDS011;35254;47.990;-1.608;2023-04-25T06:25:14;6.75;;;2.03;;
49378;SDS011;35254;47.990;-1.608;2023-04-25T06:27:40;8.30;;;1.77;;
49378;SDS011;35254;47.990;-1.608;2023-04-25T06:30:05;5.47;;;1.75;;
49378;SDS011;35254;47.990;-1.608;2023-04-25T06:32:32;1.92;;;1.33;;
49378;SDS011;35254;47.990;-1.608;2023-04-25T06:34:59;7.78;;;1.58;;
49378;SDS011;35254;47.990;-1.608;2023-04-25T06:37:25;8.52;;;2.38;;
49378;SDS011;35254;47.990;-1.608;2023-04-25T06:39:50;5.90;;;1.52;;
49378;SDS011;35254;47.990;-1.608;2023-04-25T06:42:16;6.00;;;1.80;;
49378;SDS011;35254;47.990;-1.608;2023-04-25T06:44:41;7.82;;;1.60;;
49378;SDS011;35254;47.990;-1.608;2023-04-25T06:47:07;13.38;;;2.65;;
49378;SDS011;35254;47.990;-1.608;2023-04-25T06:49:33;1.98;;;1.33;;
49378;SDS011;35254;47.990;-1.608;2023-04-25T06:51:58;11.95;;;2.03;;
49378;SDS011;35254;47.990;-1.608;2023-04-25T06:54:24;5.13;;;1.73;;
49378;SDS011;35254;47.990;-1.608;2023-04-25T06:56:52;3.63;;;2.00;;
49378;SDS011;35254;47.990;-1.608;2023-04-25T06:59:18;9.18;;;2.03;;
49378;SDS011;35254;47.990;-1.608;2023-04-25T07:01:43;5.72;;;1.70;;
49378;SDS011;35254;47.990;-1.608;2023-04-25T07:04:09;13.13;;;3.45;;
49378;SDS011;35254;47.990;-1.608;2023-04-25T07:06:35;6.95;;;2.75;;
49378;SDS011;35254;47.990;-1.608;2023-04-25T07:09:03;8.57;;;2.50;;
49378;SDS011;35254;47.990;-1.608;2023-04-25T07:11:29;12.02;;;2.20;;
49378;SDS011;35254;47.990;-1.608;2023-04-25T07:13:55;7.82;;;2.80;;
49378;SDS011;35254;47.990;-1.608;2023-04-25T07:16:20;6.30;;;2.13;;
49378;SDS011;35254;47.990;-1.608;2023-04-25T07:18:46;8.48;;;2.17;;
49378;SDS011;35254;47.990;-1.608;2023-04-25T07:21:12;6.28;;;1.95;;
49378;SDS011;35254;47.990;-1.608;2023-04-25T07:23:37;10.00;;;3.78;;
49378;SDS011;35254;47.990;-1.608;2023-04-25T07:26:05;12.18;;;2.10;;
49378;SDS011;35254;47.990;-1.608;2023-04-25T07:28:31;5.95;;;2.95;;
49378;SDS011;35254;47.990;-1.608;2023-04-25T07:30:56;10.45;;;2.17;;
49378;SDS011;35254;47.990;-1.608;2023-04-25T07:33:23;11.98;;;2.53;;
49378;SDS011;35254;47.990;-1.608;2023-04-25T07:35:48;10.27;;;2.45;;
49378;SDS011;35254;47.990;-1.608;2023-04-25T07:38:15;13.35;;;2.50;;
49378;SDS011;35254;47.990;-1.608;2023-04-25T07:40:40;6.18;;;2.67;;
49378;SDS011;35254;47.990;-1.608;2023-04-25T07:43:06;10.50;;;2.63;;
49378;SDS011;35254;47.990;-1.608;2023-04-25T07:45:32;15.50;;;3.50;;
49378;SDS011;35254;47.990;-1.608;2023-04-25T07:47:57;6.97;;;3.25;;
49378;SDS011;35254;47.990;-1.608;2023-04-25T07:50:23;7.00;;;2.15;;
49378;SDS011;35254;47.990;-1.608;2023-04-25T07:52:49;6.95;;;2.47;;
49378;SDS011;35254;47.990;-1.608;2023-04-25T07:55:14;8.23;;;2.90;;
49378;SDS011;35254;47.990;-1.608;2023-04-25T07:57:40;12.77;;;2.53;;
49378;SDS011;35254;47.990;-1.608;2023-04-25T08:00:06;8.05;;;2.85;;
49378;SDS011;35254;47.990;-1.608;2023-04-25T08:02:35;12.32;;;2.80;;
49378;SDS011;35254;47.990;-1.608;2023-04-25T08:05:01;7.93;;;2.95;;
49378;SDS011;35254;47.990;-1.608;2023-04-25T08:07:27;3.40;;;2.20;;
49378;SDS011;35254;47.990;-1.608;2023-04-25T08:09:53;6.40;;;2.75;;
49378;SDS011;35254;47.990;-1.608;2023-04-25T08:12:19;6.95;;;2.28;;
49378;SDS011;35254;47.990;-1.608;2023-04-25T08:14:45;4.22;;;2.60;;
49378;SDS011;35254;47.990;-1.608;2023-04-25T08:17:11;10.40;;;3.92;;
49378;SDS011;35254;47.990;-1.608;2023-04-25T08:19:36;7.32;;;2.63;;
49378;SDS011;35254;47.990;-1.608;2023-04-25T08:22:02;4.70;;;2.53;;
49378;SDS011;35254;47.990;-1.608;2023-04-25T08:24:28;6.72;;;3.50;;
49378;SDS011;35254;47.990;-1.608;2023-04-25T08:26:53;5.95;;;2.67;;
49378;SDS011;35254;47.990;-1.608;2023-04-25T08:29:19;6.13;;;2.90;;
49378;SDS011;35254;47.990;-1.608;2023-04-25T08:31:45;4.60;;;2.25;;
49378;SDS011;35254;47.990;-1.608;2023-04-25T08:34:10;8.18;;;2.67;;
49378;SDS011;35254;47.990;-1.608;2023-04-25T08:36:36;9.43;;;3.30;;
49378;SDS011;35254;47.990;-1.608;2023-04-25T08:39:02;6.47;;;2.60;;
49378;SDS011;35254;47.990;-1.608;2023-04-25T08:41:27;4.43;;;2.75;;
49378;SDS011;35254;47.990;-1.608;2023-04-25T08:43:53;5.63;;;2.58;;
49378;SDS011;35254;47.990;-1.608;2023-04-25T08:46:21;3.60;;;2.28;;
49378;SDS011;35254;47.990;-1.608;2023-04-25T08:48:48;3.83;;;2.45;;
49378;SDS011;35254;47.990;-1.608;2023-04-25T08:51:22;4.85;;;2.63;;
49378;SDS011;35254;47.990;-1.608;2023-04-25T08:53:53;9.48;;;3.17;;
49378;SDS011;35254;47.990;-1.608;2023-04-25T08:56:19;3.70;;;3.05;;
49378;SDS011;35254;47.990;-1.608;2023-04-25T08:58:50;11.13;;;2.92;;
49378;SDS011;35254;47.990;-1.608;2023-04-25T09:01:16;6.00;;;2.95;;
49378;SDS011;35254;47.990;-1.608;2023-04-25T09:03:43;6.90;;;2.33;;
49378;SDS011;35254;47.990;-1.608;2023-04-25T09:06:10;7.50;;;2.33;;
49378;SDS011;35254;47.990;-1.608;2023-04-25T09:08:36;7.07;;;2.42;;
49378;SDS011;35254;47.990;-1.608;2023-04-25T09:11:02;7.75;;;2.63;;
49378;SDS011;35254;47.990;-1.608;2023-04-25T09:13:28;7.80;;;2.90;;
49378;SDS011;35254;47.990;-1.608;2023-04-25T09:15:55;4.53;;;2.60;;
49378;SDS011;35254;47.990;-1.608;2023-04-25T09:18:28;8.55;;;2.88;;
49378;SDS011;35254;47.990;-1.608;2023-04-25T09:20:57;6.15;;;2.70;;
49378;SDS011;35254;47.990;-1.608;2023-04-25T09:23:44;2.47;;;2.20;;
49378;SDS011;35254;47.990;-1.608;2023-04-25T09:26:16;5.07;;;2.55;;
49378;SDS011;35254;47.990;-1.608;2023-04-25T09:28:42;4.22;;;2.45;;
49378;SDS011;35254;47.990;-1.608;2023-04-25T09:31:11;7.15;;;2.55;;
49378;SDS011;35254;47.990;-1.608;2023-04-25T09:33:37;6.00;;;2.47;;
49378;SDS011;35254;47.990;-1.608;2023-04-25T09:36:04;6.13;;;2.50;;
49378;SDS011;35254;47.990;-1.608;2023-04-25T09:38:43;5.00;;;2.70;;
49378;SDS011;35254;47.990;-1.608;2023-04-25T09:41:10;3.47;;;2.42;;
49378;SDS011;35254;47.990;-1.608;2023-04-25T09:43:36;6.65;;;2.38;;
49378;SDS011;35254;47.990;-1.608;2023-04-25T09:46:02;6.30;;;3.53;;
49378;SDS011;35254;47.990;-1.608;2023-04-25T09:48:32;7.22;;;2.05;;
49378;SDS011;35254;47.990;-1.608;2023-04-25T09:51:05;4.90;;;1.92;;
49378;SDS011;35254;47.990;-1.608;2023-04-25T09:53:39;6.20;;;2.42;;
49378;SDS011;35254;47.990;-1.608;2023-04-25T09:56:08;5.43;;;2.38;;
49378;SDS011;35254;47.990;-1.608;2023-04-25T09:58:35;5.40;;;2.97;;
49378;SDS011;35254;47.990;-1.608;2023-04-25T10:01:03;4.75;;;2.33;;
49378;SDS011;35254;47.990;-1.608;2023-04-25T10:03:31;5.00;;;2.25;;
49378;SDS011;35254;47.990;-1.608;2023-04-25T10:05:59;8.80;;;2.30;;
49378;SDS011;35254;47.990;-1.608;2023-04-25T10:08:28;6.10;;;2.40;;
49378;SDS011;35254;47.990;-1.608;2023-04-25T10:10:57;3.78;;;3.15;;
49378;SDS011;35254;47.990;-1.608;2023-04-25T10:13:33;5.07;;;2.28;;
49378;SDS011;35254;47.990;-1.608;2023-04-25T10:16:01;11.23;;;2.70;;
49378;SDS011;35254;47.990;-1.608;2023-04-25T10:18:29;5.00;;;2.42;;
49378;SDS011;35254;47.990;-1.608;2023-04-25T10:21:00;4.20;;;2.20;;
49378;SDS011;35254;47.990;-1.608;2023-04-25T10:23:26;5.55;;;2.60;;
49378;SDS011;35254;47.990;-1.608;2023-04-25T10:25:54;4.70;;;2.67;;
49378;SDS011;35254;47.990;-1.608;2023-04-25T10:28:20;8.98;;;2.22;;
49378;SDS011;35254;47.990;-1.608;2023-04-25T10:33:38;9.82;;;2.75;;
49378;SDS011;35254;47.990;-1.608;2023-04-25T10:36:13;3.70;;;2.35;;
49378;SDS011;35254;47.990;-1.608;2023-04-25T10:38:41;7.97;;;2.92;;
49378;SDS011;35254;47.990;-1.608;2023-04-25T10:41:08;4.18;;;2.58;;
49378;SDS011;35254;47.990;-1.608;2023-04-25T10:46:13;3.97;;;3.00;;
49378;SDS011;35254;47.990;-1.608;2023-04-25T10:48:38;3.00;;;2.67;;
49378;SDS011;35254;47.990;-1.608;2023-04-25T10:51:28;3.88;;;2.38;;
49378;SDS011;35254;47.990;-1.608;2023-04-25T10:56:31;4.05;;;1.90;;
49378;SDS011;35254;47.990;-1.608;2023-04-25T10:59:05;5.03;;;3.05;;
49378;SDS011;35254;47.990;-1.608;2023-04-25T11:01:36;7.53;;;2.65;;
49378;SDS011;35254;47.990;-1.608;2023-04-25T11:04:05;3.90;;;2.58;;
49378;SDS011;35254;47.990;-1.608;2023-04-25T11:09:02;4.60;;;2.70;;
49378;SDS011;35254;47.990;-1.608;2023-04-25T11:11:36;3.90;;;2.50;;
49378;SDS011;35254;47.990;-1.608;2023-04-25T11:14:02;4.20;;;2.20;;
49378;SDS011;35254;47.990;-1.608;2023-04-25T11:16:27;6.03;;;2.88;;
49378;SDS011;35254;47.990;-1.608;2023-04-25T11:18:53;2.90;;;1.92;;
49378;SDS011;35254;47.990;-1.608;2023-04-25T11:21:21;5.93;;;2.75;;
49378;SDS011;35254;47.990;-1.608;2023-04-25T11:23:47;6.63;;;2.40;;
49378;SDS011;35254;47.990;-1.608;2023-04-25T11:26:13;6.25;;;2.38;;
49378;SDS011;35254;47.990;-1.608;2023-04-25T11:28:40;2.97;;;1.95;;
49378;SDS011;35254;47.990;-1.608;2023-04-25T11:31:05;3.97;;;1.90;;
49378;SDS011;35254;47.990;-1.608;2023-04-25T11:33:31;5.43;;;1.85;;
49378;SDS011;35254;47.990;-1.608;2023-04-25T11:35:57;6.32;;;2.97;;
49378;SDS011;35254;47.990;-1.608;2023-04-25T11:38:24;5.72;;;2.20;;
49378;SDS011;35254;47.990;-1.608;2023-04-25T11:40:51;4.82;;;2.53;;
49378;SDS011;35254;47.990;-1.608;2023-04-25T11:43:17;3.47;;;2.40;;
49378;SDS011;35254;47.990;-1.608;2023-04-25T11:45:49;6.10;;;2.42;;
49378;SDS011;35254;47.990;-1.608;2023-04-25T11:48:15;3.67;;;2.47;;
49378;SDS011;35254;47.990;-1.608;2023-04-25T11:50:41;9.52;;;2.30;;
49378;SDS011;35254;47.990;-1.608;2023-04-25T11:53:07;4.65;;;2.70;;
49378;SDS011;35254;47.990;-1.608;2023-04-25T11:55:33;7.93;;;2.58;;
49378;SDS011;35254;47.990;-1.608;2023-04-25T11:57:59;5.03;;;2.45;;
49378;SDS011;35254;47.990;-1.608;2023-04-25T12:00:26;6.32;;;2.30;;
49378;SDS011;35254;47.990;-1.608;2023-04-25T12:02:53;6.22;;;2.65;;
49378;SDS011;35254;47.990;-1.608;2023-04-25T12:05:20;4.05;;;2.33;;
49378;SDS011;35254;47.990;-1.608;2023-04-25T12:07:48;3.97;;;2.50;;
49378;SDS011;35254;47.990;-1.608;2023-04-25T12:10:17;7.55;;;3.05;;
49378;SDS011;35254;47.990;-1.608;2023-04-25T12:12:45;4.25;;;2.08;;
49378;SDS011;35254;47.990;-1.608;2023-04-25T12:15:15;3.72;;;2.67;;
49378;SDS011;35254;47.990;-1.608;2023-04-25T12:17:47;3.20;;;2.10;;
49378;SDS011;35254;47.990;-1.608;2023-04-25T12:20:18;8.07;;;2.60;;
49378;SDS011;35254;47.990;-1.608;2023-04-25T12:22:48;6.75;;;2.85;;
49378;SDS011;35254;47.990;-1.608;2023-04-25T12:25:20;4.75;;;2.85;;
49378;SDS011;35254;47.990;-1.608;2023-04-25T12:28:19;3.47;;;2.75;;
49378;SDS011;35254;47.990;-1.608;2023-04-25T12:31:04;5.22;;;2.28;;
49378;SDS011;35254;47.990;-1.608;2023-04-25T12:33:32;4.95;;;2.45;;
49378;SDS011;35254;47.990;-1.608;2023-04-25T12:36:00;2.80;;;2.53;;
49378;SDS011;35254;47.990;-1.608;2023-04-25T12:38:35;5.45;;;2.25;;
49378;SDS011;35254;47.990;-1.608;2023-04-25T12:41:02;3.70;;;2.23;;
49378;SDS011;35254;47.990;-1.608;2023-04-25T12:43:28;4.95;;;2.33;;
49378;SDS011;35254;47.990;-1.608;2023-04-25T12:45:54;3.55;;;2.40;;
49378;SDS011;35254;47.990;-1.608;2023-04-25T12:48:21;5.00;;;2.53;;
49378;SDS011;35254;47.990;-1.608;2023-04-25T12:50:47;6.32;;;2.28;;
49378;SDS011;35254;47.990;-1.608;2023-04-25T12:53:21;7.18;;;2.53;;
49378;SDS011;35254;47.990;-1.608;2023-04-25T12:55:48;3.03;;;2.45;;
49378;SDS011;35254;47.990;-1.608;2023-04-25T12:58:14;4.28;;;2.70;;
49378;SDS011;35254;47.990;-1.608;2023-04-25T13:00:40;7.53;;;2.25;;
49378;SDS011;35254;47.990;-1.608;2023-04-25T13:03:07;4.82;;;2.03;;
49378;SDS011;35254;47.990;-1.608;2023-04-25T13:05:33;4.32;;;1.98;;
49378;SDS011;35254;47.990;-1.608;2023-04-25T13:07:58;4.97;;;2.60;;
49378;SDS011;35254;47.990;-1.608;2023-04-25T13:10:24;4.07;;;1.75;;
49378;SDS011;35254;47.990;-1.608;2023-04-25T13:12:50;2.58;;;2.10;;
49378;SDS011;35254;47.990;-1.608;2023-04-25T13:15:15;7.53;;;2.25;;
49378;SDS011;35254;47.990;-1.608;2023-04-25T13:17:41;8.77;;;4.07;;
49378;SDS011;35254;47.990;-1.608;2023-04-25T13:20:08;4.63;;;2.17;;
49378;SDS011;35254;47.990;-1.608;2023-04-25T13:22:37;3.67;;;1.98;;
49378;SDS011;35254;47.990;-1.608;2023-04-25T13:25:04;8.23;;;2.38;;
49378;SDS011;35254;47.990;-1.608;2023-04-25T13:27:30;5.75;;;1.90;;
49378;SDS011;35254;47.990;-1.608;2023-04-25T13:29:57;4.15;;;2.00;;
49378;SDS011;35254;47.990;-1.608;2023-04-25T13:32:23;5.38;;;2.35;;
49378;SDS011;35254;47.990;-1.608;2023-04-25T13:34:50;2.65;;;1.80;;
49378;SDS011;35254;47.990;-1.608;2023-04-25T13:37:16;3.50;;;2.42;;
49378;SDS011;35254;47.990;-1.608;2023-04-25T13:39:42;2.35;;;2.15;;
49378;SDS011;35254;47.990;-1.608;2023-04-25T13:42:07;2.53;;;2.13;;
49378;SDS011;35254;47.990;-1.608;2023-04-25T13:44:33;2.85;;;1.80;;
49378;SDS011;35254;47.990;-1.608;2023-04-25T13:46:58;3.00;;;1.95;;
49378;SDS011;35254;47.990;-1.608;2023-04-25T13:49:25;2.83;;;1.70;;
49378;SDS011;35254;47.990;-1.608;2023-04-25T13:51:51;10.38;;;2.10;;
49378;SDS011;35254;47.990;-1.608;2023-04-25T13:54:17;3.20;;;2.10;;
49378;SDS011;35254;47.990;-1.608;2023-04-25T13:56:42;3.08;;;2.15;;
49378;SDS011;35254;47.990;-1.608;2023-04-25T13:59:08;2.80;;;2.22;;
49378;SDS011;35254;47.990;-1.608;2023-04-25T14:01:34;2.25;;;1.67;;
49378;SDS011;35254;47.990;-1.608;2023-04-25T14:04:00;4.43;;;2.08;;
49378;SDS011;35254;47.990;-1.608;2023-04-25T14:06:26;4.33;;;1.90;;
49378;SDS011;35254;47.990;-1.608;2023-04-25T14:08:53;2.33;;;2.05;;
49378;SDS011;35254;47.990;-1.608;2023-04-25T14:11:19;4.20;;;2.40;;
49378;SDS011;35254;47.990;-1.608;2023-04-25T14:13:45;2.92;;;2.00;;
49378;SDS011;35254;47.990;-1.608;2023-04-25T14:16:11;6.53;;;2.08;;
49378;SDS011;35254;47.990;-1.608;2023-04-25T14:18:37;2.13;;;1.83;;
49378;SDS011;35254;47.990;-1.608;2023-04-25T14:21:02;3.03;;;1.70;;
49378;SDS011;35254;47.990;-1.608;2023-04-25T14:23:28;2.67;;;1.77;;
49378;SDS011;35254;47.990;-1.608;2023-04-25T14:25:53;2.10;;;1.90;;
49378;SDS011;35254;47.990;-1.608;2023-04-25T14:28:19;2.05;;;1.88;;
49378;SDS011;35254;47.990;-1.608;2023-04-25T14:30:45;3.85;;;2.05;;
49378;SDS011;35254;47.990;-1.608;2023-04-25T14:33:10;2.80;;;1.92;;
49378;SDS011;35254;47.990;-1.608;2023-04-25T14:35:36;3.28;;;2.00;;
49378;SDS011;35254;47.990;-1.608;2023-04-25T14:38:02;5.05;;;2.25;;
49378;SDS011;35254;47.990;-1.608;2023-04-25T14:40:28;2.40;;;1.92;;